sensor_id;sensor_type;location;lat;lon;timestamp;P1;durP1;ratioP1;P2;durP2;ratioP2
55784;SDS011;41709;52.536;5.688;2023-04-16T00:01:47;27.77;;;9.05;;
55784;SDS011;41709;52.536;5.688;2023-04-16T00:04:13;25.95;;;9.75;;
55784;SDS011;41709;52.536;5.688;2023-04-16T00:06:38;32.20;;;9.48;;
55784;SDS011;41709;52.536;5.688;2023-04-16T00:09:05;28.55;;;9.85;;
55784;SDS011;41709;52.536;5.688;2023-04-16T00:11:31;43.25;;;10.95;;
55784;SDS011;41709;52.536;5.688;2023-04-16T00:13:56;30.95;;;10.57;;
55784;SDS011;41709;52.536;5.688;2023-04-16T00:16:22;24.77;;;9.35;;
55784;SDS011;41709;52.536;5.688;2023-04-16T00:18:47;32.03;;;11.02;;
55784;SDS011;41709;52.536;5.688;2023-04-16T00:21:13;31.08;;;10.18;;
55784;SDS011;41709;52.536;5.688;2023-04-16T00:23:38;24.00;;;9.52;;
55784;SDS011;41709;52.536;5.688;2023-04-16T00:26:04;28.88;;;10.48;;
55784;SDS011;41709;52.536;5.688;2023-04-16T00:28:29;33.13;;;10.38;;
55784;SDS011;41709;52.536;5.688;2023-04-16T00:30:55;29.38;;;9.90;;
55784;SDS011;41709;52.536;5.688;2023-04-16T00:33:21;34.22;;;10.98;;
55784;SDS011;41709;52.536;5.688;2023-04-16T00:35:47;26.52;;;10.93;;
55784;SDS011;41709;52.536;5.688;2023-04-16T00:38:13;31.25;;;11.57;;
55784;SDS011;41709;52.536;5.688;2023-04-16T00:40:39;31.00;;;9.70;;
55784;SDS011;41709;52.536;5.688;2023-04-16T00:43:04;33.72;;;10.73;;
55784;SDS011;41709;52.536;5.688;2023-04-16T00:45:30;23.30;;;10.68;;
55784;SDS011;41709;52.536;5.688;2023-04-16T00:47:56;31.60;;;11.48;;
55784;SDS011;41709;52.536;5.688;2023-04-16T00:50:23;28.15;;;10.50;;
55784;SDS011;41709;52.536;5.688;2023-04-16T00:52:48;27.02;;;11.25;;
55784;SDS011;41709;52.536;5.688;2023-04-16T00:55:15;28.63;;;11.95;;
55784;SDS011;41709;52.536;5.688;2023-04-16T00:57:42;30.00;;;11.02;;
55784;SDS011;41709;52.536;5.688;2023-04-16T01:00:08;25.35;;;11.10;;
55784;SDS011;41709;52.536;5.688;2023-04-16T01:02:34;27.63;;;11.70;;
55784;SDS011;41709;52.536;5.688;2023-04-16T01:05:00;30.40;;;12.55;;
55784;SDS011;41709;52.536;5.688;2023-04-16T01:07:27;27.60;;;10.35;;
55784;SDS011;41709;52.536;5.688;2023-04-16T01:09:53;26.88;;;10.68;;
55784;SDS011;41709;52.536;5.688;2023-04-16T01:12:18;29.08;;;12.43;;
55784;SDS011;41709;52.536;5.688;2023-04-16T01:14:44;26.95;;;11.30;;
55784;SDS011;41709;52.536;5.688;2023-04-16T01:17:09;27.90;;;12.48;;
55784;SDS011;41709;52.536;5.688;2023-04-16T01:19:35;30.23;;;11.27;;
55784;SDS011;41709;52.536;5.688;2023-04-16T01:22:01;24.48;;;12.25;;
55784;SDS011;41709;52.536;5.688;2023-04-16T01:24:27;32.78;;;12.05;;
55784;SDS011;41709;52.536;5.688;2023-04-16T01:26:52;32.60;;;12.63;;
55784;SDS011;41709;52.536;5.688;2023-04-16T01:29:18;35.70;;;14.10;;
55784;SDS011;41709;52.536;5.688;2023-04-16T01:31:44;36.80;;;14.43;;
55784;SDS011;41709;52.536;5.688;2023-04-16T01:34:10;39.55;;;14.70;;
55784;SDS011;41709;52.536;5.688;2023-04-16T01:36:36;33.00;;;14.27;;
55784;SDS011;41709;52.536;5.688;2023-04-16T01:39:02;36.58;;;14.68;;
55784;SDS011;41709;52.536;5.688;2023-04-16T01:41:28;37.88;;;15.00;;
55784;SDS011;41709;52.536;5.688;2023-04-16T01:43:55;36.95;;;15.73;;
55784;SDS011;41709;52.536;5.688;2023-04-16T01:46:22;41.35;;;15.60;;
55784;SDS011;41709;52.536;5.688;2023-04-16T01:48:56;33.00;;;15.00;;
55784;SDS011;41709;52.536;5.688;2023-04-16T01:51:22;42.88;;;14.77;;
55784;SDS011;41709;52.536;5.688;2023-04-16T01:53:48;39.22;;;14.25;;
55784;SDS011;41709;52.536;5.688;2023-04-16T01:56:14;45.67;;;15.85;;
55784;SDS011;41709;52.536;5.688;2023-04-16T01:58:40;37.47;;;14.75;;
55784;SDS011;41709;52.536;5.688;2023-04-16T02:01:06;39.85;;;13.75;;
55784;SDS011;41709;52.536;5.688;2023-04-16T02:03:32;39.15;;;14.70;;
55784;SDS011;41709;52.536;5.688;2023-04-16T02:05:58;40.03;;;14.55;;
55784;SDS011;41709;52.536;5.688;2023-04-16T02:08:25;43.55;;;15.75;;
55784;SDS011;41709;52.536;5.688;2023-04-16T02:10:50;38.72;;;14.77;;
55784;SDS011;41709;52.536;5.688;2023-04-16T02:13:16;42.83;;;15.63;;
55784;SDS011;41709;52.536;5.688;2023-04-16T02:15:48;41.38;;;13.70;;
55784;SDS011;41709;52.536;5.688;2023-04-16T02:18:15;36.40;;;14.38;;
55784;SDS011;41709;52.536;5.688;2023-04-16T02:20:45;39.30;;;14.82;;
55784;SDS011;41709;52.536;5.688;2023-04-16T02:23:11;40.47;;;14.30;;
55784;SDS011;41709;52.536;5.688;2023-04-16T02:25:42;41.67;;;14.93;;
55784;SDS011;41709;52.536;5.688;2023-04-16T02:28:11;44.28;;;13.80;;
55784;SDS011;41709;52.536;5.688;2023-04-16T02:30:39;31.63;;;13.10;;
55784;SDS011;41709;52.536;5.688;2023-04-16T02:33:05;36.28;;;13.45;;
55784;SDS011;41709;52.536;5.688;2023-04-16T02:35:35;38.28;;;14.10;;
55784;SDS011;41709;52.536;5.688;2023-04-16T02:38:02;38.45;;;14.20;;
55784;SDS011;41709;52.536;5.688;2023-04-16T02:40:28;32.33;;;13.65;;
55784;SDS011;41709;52.536;5.688;2023-04-16T02:42:54;41.80;;;14.73;;
55784;SDS011;41709;52.536;5.688;2023-04-16T02:45:20;34.90;;;14.02;;
55784;SDS011;41709;52.536;5.688;2023-04-16T02:47:46;44.65;;;16.90;;
55784;SDS011;41709;52.536;5.688;2023-04-16T02:50:13;35.03;;;15.60;;
55784;SDS011;41709;52.536;5.688;2023-04-16T02:52:38;36.08;;;15.70;;
55784;SDS011;41709;52.536;5.688;2023-04-16T02:55:04;33.50;;;16.02;;
55784;SDS011;41709;52.536;5.688;2023-04-16T02:57:30;38.40;;;16.52;;
55784;SDS011;41709;52.536;5.688;2023-04-16T02:59:56;34.58;;;15.13;;
55784;SDS011;41709;52.536;5.688;2023-04-16T03:02:21;37.03;;;16.02;;
55784;SDS011;41709;52.536;5.688;2023-04-16T03:04:47;27.98;;;14.10;;
55784;SDS011;41709;52.536;5.688;2023-04-16T03:07:13;33.83;;;14.77;;
55784;SDS011;41709;52.536;5.688;2023-04-16T03:09:38;29.80;;;14.38;;
55784;SDS011;41709;52.536;5.688;2023-04-16T03:12:04;42.78;;;15.65;;
55784;SDS011;41709;52.536;5.688;2023-04-16T03:14:29;30.55;;;13.23;;
55784;SDS011;41709;52.536;5.688;2023-04-16T03:16:55;29.30;;;11.98;;
55784;SDS011;41709;52.536;5.688;2023-04-16T03:19:21;27.25;;;13.07;;
55784;SDS011;41709;52.536;5.688;2023-04-16T03:21:47;30.88;;;13.05;;
55784;SDS011;41709;52.536;5.688;2023-04-16T03:24:12;33.22;;;13.38;;
55784;SDS011;41709;52.536;5.688;2023-04-16T03:26:38;27.88;;;13.32;;
55784;SDS011;41709;52.536;5.688;2023-04-16T03:29:03;25.83;;;11.82;;
55784;SDS011;41709;52.536;5.688;2023-04-16T03:31:29;31.95;;;13.07;;
55784;SDS011;41709;52.536;5.688;2023-04-16T03:33:55;27.30;;;13.50;;
55784;SDS011;41709;52.536;5.688;2023-04-16T03:36:21;33.42;;;15.10;;
55784;SDS011;41709;52.536;5.688;2023-04-16T03:38:51;31.75;;;14.57;;
55784;SDS011;41709;52.536;5.688;2023-04-16T03:41:16;31.88;;;14.27;;
55784;SDS011;41709;52.536;5.688;2023-04-16T03:43:42;32.00;;;13.57;;
55784;SDS011;41709;52.536;5.688;2023-04-16T03:46:07;33.00;;;13.30;;
55784;SDS011;41709;52.536;5.688;2023-04-16T03:48:33;35.35;;;13.90;;
55784;SDS011;41709;52.536;5.688;2023-04-16T03:50:59;29.33;;;13.93;;
55784;SDS011;41709;52.536;5.688;2023-04-16T03:53:24;28.38;;;13.30;;
55784;SDS011;41709;52.536;5.688;2023-04-16T03:55:50;30.25;;;13.85;;
55784;SDS011;41709;52.536;5.688;2023-04-16T03:58:16;31.98;;;12.98;;
55784;SDS011;41709;52.536;5.688;2023-04-16T04:00:42;25.08;;;12.10;;
55784;SDS011;41709;52.536;5.688;2023-04-16T04:03:08;30.77;;;12.75;;
55784;SDS011;41709;52.536;5.688;2023-04-16T04:05:35;30.60;;;12.35;;
55784;SDS011;41709;52.536;5.688;2023-04-16T04:08:02;31.27;;;12.90;;
55784;SDS011;41709;52.536;5.688;2023-04-16T04:10:27;27.17;;;11.70;;
55784;SDS011;41709;52.536;5.688;2023-04-16T04:12:56;29.07;;;12.97;;
55784;SDS011;41709;52.536;5.688;2023-04-16T04:15:21;32.85;;;13.75;;
55784;SDS011;41709;52.536;5.688;2023-04-16T04:17:47;27.50;;;12.95;;
55784;SDS011;41709;52.536;5.688;2023-04-16T04:20:12;33.22;;;13.13;;
55784;SDS011;41709;52.536;5.688;2023-04-16T04:22:38;29.90;;;12.65;;
55784;SDS011;41709;52.536;5.688;2023-04-16T04:25:04;32.85;;;13.20;;
55784;SDS011;41709;52.536;5.688;2023-04-16T04:27:29;36.05;;;13.45;;
55784;SDS011;41709;52.536;5.688;2023-04-16T04:29:55;30.25;;;15.57;;
55784;SDS011;41709;52.536;5.688;2023-04-16T04:32:21;27.58;;;12.63;;
55784;SDS011;41709;52.536;5.688;2023-04-16T04:34:47;31.30;;;13.93;;
55784;SDS011;41709;52.536;5.688;2023-04-16T04:37:12;31.13;;;14.80;;
55784;SDS011;41709;52.536;5.688;2023-04-16T04:39:38;34.13;;;14.65;;
55784;SDS011;41709;52.536;5.688;2023-04-16T04:42:03;31.88;;;13.85;;
55784;SDS011;41709;52.536;5.688;2023-04-16T04:44:29;35.13;;;14.63;;
55784;SDS011;41709;52.536;5.688;2023-04-16T04:46:54;30.65;;;15.75;;
55784;SDS011;41709;52.536;5.688;2023-04-16T04:49:20;35.40;;;13.98;;
55784;SDS011;41709;52.536;5.688;2023-04-16T04:51:45;32.80;;;14.27;;
55784;SDS011;41709;52.536;5.688;2023-04-16T04:54:12;31.40;;;14.48;;
55784;SDS011;41709;52.536;5.688;2023-04-16T04:56:37;29.73;;;14.45;;
55784;SDS011;41709;52.536;5.688;2023-04-16T04:59:03;29.42;;;13.65;;
55784;SDS011;41709;52.536;5.688;2023-04-16T05:01:28;30.17;;;14.38;;
55784;SDS011;41709;52.536;5.688;2023-04-16T05:03:54;28.67;;;14.50;;
55784;SDS011;41709;52.536;5.688;2023-04-16T05:06:20;32.08;;;14.88;;
55784;SDS011;41709;52.536;5.688;2023-04-16T05:08:45;32.63;;;15.43;;
55784;SDS011;41709;52.536;5.688;2023-04-16T05:11:11;36.45;;;16.42;;
55784;SDS011;41709;52.536;5.688;2023-04-16T05:13:36;33.03;;;15.57;;
55784;SDS011;41709;52.536;5.688;2023-04-16T05:16:02;38.63;;;17.63;;
55784;SDS011;41709;52.536;5.688;2023-04-16T05:18:27;41.10;;;17.58;;
55784;SDS011;41709;52.536;5.688;2023-04-16T05:20:53;38.55;;;17.15;;
55784;SDS011;41709;52.536;5.688;2023-04-16T05:23:19;41.40;;;18.30;;
55784;SDS011;41709;52.536;5.688;2023-04-16T05:25:45;40.58;;;18.88;;
55784;SDS011;41709;52.536;5.688;2023-04-16T05:28:10;48.88;;;18.45;;
55784;SDS011;41709;52.536;5.688;2023-04-16T05:30:36;47.10;;;19.90;;
55784;SDS011;41709;52.536;5.688;2023-04-16T05:33:02;42.67;;;19.10;;
55784;SDS011;41709;52.536;5.688;2023-04-16T05:35:27;44.67;;;19.00;;
55784;SDS011;41709;52.536;5.688;2023-04-16T05:37:53;46.83;;;19.77;;
55784;SDS011;41709;52.536;5.688;2023-04-16T05:40:18;43.83;;;18.80;;
55784;SDS011;41709;52.536;5.688;2023-04-16T05:42:44;41.25;;;18.63;;
55784;SDS011;41709;52.536;5.688;2023-04-16T05:45:10;42.95;;;19.45;;
55784;SDS011;41709;52.536;5.688;2023-04-16T05:47:35;42.40;;;20.35;;
55784;SDS011;41709;52.536;5.688;2023-04-16T05:50:01;39.20;;;18.70;;
55784;SDS011;41709;52.536;5.688;2023-04-16T05:52:26;36.88;;;17.65;;
55784;SDS011;41709;52.536;5.688;2023-04-16T05:54:52;44.50;;;18.60;;
55784;SDS011;41709;52.536;5.688;2023-04-16T05:57:17;36.58;;;18.00;;
55784;SDS011;41709;52.536;5.688;2023-04-16T05:59:43;41.13;;;17.45;;
55784;SDS011;41709;52.536;5.688;2023-04-16T06:02:08;42.65;;;19.20;;
55784;SDS011;41709;52.536;5.688;2023-04-16T06:04:34;43.88;;;18.48;;
55784;SDS011;41709;52.536;5.688;2023-04-16T06:07:00;41.17;;;19.10;;
55784;SDS011;41709;52.536;5.688;2023-04-16T06:09:25;43.20;;;18.88;;
55784;SDS011;41709;52.536;5.688;2023-04-16T06:11:51;41.17;;;18.23;;
55784;SDS011;41709;52.536;5.688;2023-04-16T06:14:16;45.22;;;17.50;;
55784;SDS011;41709;52.536;5.688;2023-04-16T06:16:42;39.00;;;17.73;;
55784;SDS011;41709;52.536;5.688;2023-04-16T06:19:08;37.88;;;17.73;;
55784;SDS011;41709;52.536;5.688;2023-04-16T06:21:33;40.25;;;18.98;;
55784;SDS011;41709;52.536;5.688;2023-04-16T06:23:59;46.90;;;18.92;;
55784;SDS011;41709;52.536;5.688;2023-04-16T06:26:25;48.35;;;19.58;;
55784;SDS011;41709;52.536;5.688;2023-04-16T06:28:50;49.67;;;20.60;;
55784;SDS011;41709;52.536;5.688;2023-04-16T06:31:16;44.90;;;20.23;;
55784;SDS011;41709;52.536;5.688;2023-04-16T06:33:42;40.67;;;19.02;;
55784;SDS011;41709;52.536;5.688;2023-04-16T06:36:07;47.75;;;20.35;;
55784;SDS011;41709;52.536;5.688;2023-04-16T06:38:33;38.90;;;18.48;;
55784;SDS011;41709;52.536;5.688;2023-04-16T06:40:58;42.42;;;18.23;;
55784;SDS011;41709;52.536;5.688;2023-04-16T06:43:24;40.97;;;18.13;;
55784;SDS011;41709;52.536;5.688;2023-04-16T06:45:50;40.60;;;17.52;;
55784;SDS011;41709;52.536;5.688;2023-04-16T06:48:16;37.35;;;16.88;;
55784;SDS011;41709;52.536;5.688;2023-04-16T06:50:41;44.65;;;18.80;;
55784;SDS011;41709;52.536;5.688;2023-04-16T06:53:07;47.15;;;18.80;;
55784;SDS011;41709;52.536;5.688;2023-04-16T06:55:32;45.60;;;17.98;;
55784;SDS011;41709;52.536;5.688;2023-04-16T06:57:58;47.63;;;18.45;;
55784;SDS011;41709;52.536;5.688;2023-04-16T07:00:23;39.08;;;17.05;;
55784;SDS011;41709;52.536;5.688;2023-04-16T07:02:49;43.60;;;17.60;;
55784;SDS011;41709;52.536;5.688;2023-04-16T07:05:15;37.90;;;16.55;;
55784;SDS011;41709;52.536;5.688;2023-04-16T07:07:40;42.88;;;18.20;;
55784;SDS011;41709;52.536;5.688;2023-04-16T07:10:06;48.83;;;18.48;;
55784;SDS011;41709;52.536;5.688;2023-04-16T07:12:32;37.65;;;16.73;;
55784;SDS011;41709;52.536;5.688;2023-04-16T07:14:57;53.70;;;19.17;;
55784;SDS011;41709;52.536;5.688;2023-04-16T07:17:23;40.65;;;17.67;;
55784;SDS011;41709;52.536;5.688;2023-04-16T07:19:50;48.60;;;18.13;;
55784;SDS011;41709;52.536;5.688;2023-04-16T07:22:15;46.35;;;19.13;;
55784;SDS011;41709;52.536;5.688;2023-04-16T07:24:41;46.90;;;18.85;;
55784;SDS011;41709;52.536;5.688;2023-04-16T07:27:07;53.65;;;18.58;;
55784;SDS011;41709;52.536;5.688;2023-04-16T07:29:32;49.45;;;18.58;;
55784;SDS011;41709;52.536;5.688;2023-04-16T07:31:58;45.47;;;17.45;;
55784;SDS011;41709;52.536;5.688;2023-04-16T07:34:23;46.50;;;18.42;;
55784;SDS011;41709;52.536;5.688;2023-04-16T07:36:49;53.47;;;18.88;;
55784;SDS011;41709;52.536;5.688;2023-04-16T07:39:14;36.53;;;16.27;;
55784;SDS011;41709;52.536;5.688;2023-04-16T07:41:40;35.13;;;15.77;;
55784;SDS011;41709;52.536;5.688;2023-04-16T07:44:06;41.97;;;16.73;;
55784;SDS011;41709;52.536;5.688;2023-04-16T07:46:32;37.10;;;15.52;;
55784;SDS011;41709;52.536;5.688;2023-04-16T07:48:57;41.10;;;17.48;;
55784;SDS011;41709;52.536;5.688;2023-04-16T07:51:23;37.00;;;15.90;;
55784;SDS011;41709;52.536;5.688;2023-04-16T07:53:48;39.00;;;15.02;;
55784;SDS011;41709;52.536;5.688;2023-04-16T07:56:14;38.95;;;16.23;;
55784;SDS011;41709;52.536;5.688;2023-04-16T07:58:39;36.20;;;15.35;;
55784;SDS011;41709;52.536;5.688;2023-04-16T08:01:05;34.03;;;15.00;;
55784;SDS011;41709;52.536;5.688;2023-04-16T08:03:30;49.20;;;17.90;;
55784;SDS011;41709;52.536;5.688;2023-04-16T08:05:56;33.60;;;14.10;;
55784;SDS011;41709;52.536;5.688;2023-04-16T08:08:22;41.80;;;16.15;;
55784;SDS011;41709;52.536;5.688;2023-04-16T08:10:48;38.00;;;14.23;;
55784;SDS011;41709;52.536;5.688;2023-04-16T08:13:13;41.90;;;15.68;;
55784;SDS011;41709;52.536;5.688;2023-04-16T08:15:39;44.78;;;16.45;;
55784;SDS011;41709;52.536;5.688;2023-04-16T08:18:05;37.65;;;14.18;;
55784;SDS011;41709;52.536;5.688;2023-04-16T08:20:36;37.60;;;15.43;;
55784;SDS011;41709;52.536;5.688;2023-04-16T08:23:02;34.60;;;14.02;;
55784;SDS011;41709;52.536;5.688;2023-04-16T08:25:28;29.33;;;13.25;;
55784;SDS011;41709;52.536;5.688;2023-04-16T08:27:53;32.45;;;13.05;;
55784;SDS011;41709;52.536;5.688;2023-04-16T08:30:19;33.13;;;14.48;;
55784;SDS011;41709;52.536;5.688;2023-04-16T08:32:45;38.00;;;14.77;;
55784;SDS011;41709;52.536;5.688;2023-04-16T08:35:11;36.72;;;16.85;;
55784;SDS011;41709;52.536;5.688;2023-04-16T08:37:36;29.77;;;15.07;;
55784;SDS011;41709;52.536;5.688;2023-04-16T08:40:02;31.48;;;15.30;;
55784;SDS011;41709;52.536;5.688;2023-04-16T08:42:33;34.58;;;14.20;;
55784;SDS011;41709;52.536;5.688;2023-04-16T08:47:37;34.58;;;15.68;;
55784;SDS011;41709;52.536;5.688;2023-04-16T08:50:03;31.90;;;15.52;;
55784;SDS011;41709;52.536;5.688;2023-04-16T08:52:30;38.10;;;15.32;;
55784;SDS011;41709;52.536;5.688;2023-04-16T08:57:22;38.72;;;16.98;;
55784;SDS011;41709;52.536;5.688;2023-04-16T08:59:50;41.22;;;16.63;;
55784;SDS011;41709;52.536;5.688;2023-04-16T09:02:18;39.70;;;16.85;;
55784;SDS011;41709;52.536;5.688;2023-04-16T09:04:44;33.70;;;16.50;;
55784;SDS011;41709;52.536;5.688;2023-04-16T09:07:12;33.25;;;15.77;;
55784;SDS011;41709;52.536;5.688;2023-04-16T09:09:38;40.38;;;17.33;;
55784;SDS011;41709;52.536;5.688;2023-04-16T09:12:04;36.20;;;15.73;;
55784;SDS011;41709;52.536;5.688;2023-04-16T09:14:32;36.33;;;16.75;;
55784;SDS011;41709;52.536;5.688;2023-04-16T09:16:58;31.75;;;14.60;;
55784;SDS011;41709;52.536;5.688;2023-04-16T09:19:26;33.42;;;15.57;;
55784;SDS011;41709;52.536;5.688;2023-04-16T09:21:52;35.78;;;15.45;;
55784;SDS011;41709;52.536;5.688;2023-04-16T09:24:17;37.63;;;15.65;;
55784;SDS011;41709;52.536;5.688;2023-04-16T09:26:43;37.83;;;16.48;;
55784;SDS011;41709;52.536;5.688;2023-04-16T09:29:10;42.00;;;18.42;;
55784;SDS011;41709;52.536;5.688;2023-04-16T09:31:35;31.88;;;15.18;;
55784;SDS011;41709;52.536;5.688;2023-04-16T09:34:05;36.15;;;15.38;;
55784;SDS011;41709;52.536;5.688;2023-04-16T09:36:32;42.88;;;16.95;;
55784;SDS011;41709;52.536;5.688;2023-04-16T09:38:59;33.83;;;15.15;;
55784;SDS011;41709;52.536;5.688;2023-04-16T09:41:29;35.75;;;13.90;;
55784;SDS011;41709;52.536;5.688;2023-04-16T09:44:00;32.53;;;15.20;;
55784;SDS011;41709;52.536;5.688;2023-04-16T09:46:29;36.10;;;14.82;;
55784;SDS011;41709;52.536;5.688;2023-04-16T09:48:55;34.15;;;14.63;;
55784;SDS011;41709;52.536;5.688;2023-04-16T09:51:20;30.92;;;14.88;;
55784;SDS011;41709;52.536;5.688;2023-04-16T09:53:46;33.65;;;14.15;;
55784;SDS011;41709;52.536;5.688;2023-04-16T09:56:17;40.22;;;14.65;;
55784;SDS011;41709;52.536;5.688;2023-04-16T09:58:47;37.90;;;14.40;;
55784;SDS011;41709;52.536;5.688;2023-04-16T10:01:12;28.95;;;14.13;;
55784;SDS011;41709;52.536;5.688;2023-04-16T10:03:38;33.65;;;15.30;;
55784;SDS011;41709;52.536;5.688;2023-04-16T10:06:14;28.63;;;14.35;;
55784;SDS011;41709;52.536;5.688;2023-04-16T10:08:47;36.88;;;14.32;;
55784;SDS011;41709;52.536;5.688;2023-04-16T10:11:22;31.75;;;14.20;;
55784;SDS011;41709;52.536;5.688;2023-04-16T10:13:48;37.95;;;14.98;;
55784;SDS011;41709;52.536;5.688;2023-04-16T10:16:14;31.00;;;13.10;;
55784;SDS011;41709;52.536;5.688;2023-04-16T10:18:40;36.22;;;15.52;;
55784;SDS011;41709;52.536;5.688;2023-04-16T10:21:07;32.38;;;13.07;;
55784;SDS011;41709;52.536;5.688;2023-04-16T10:23:37;37.75;;;14.00;;
55784;SDS011;41709;52.536;5.688;2023-04-16T10:26:03;25.27;;;12.10;;
55784;SDS011;41709;52.536;5.688;2023-04-16T10:28:29;38.42;;;14.13;;
55784;SDS011;41709;52.536;5.688;2023-04-16T10:30:56;33.70;;;14.15;;
55784;SDS011;41709;52.536;5.688;2023-04-16T10:33:26;37.35;;;12.57;;
55784;SDS011;41709;52.536;5.688;2023-04-16T10:36:10;33.10;;;13.38;;
55784;SDS011;41709;52.536;5.688;2023-04-16T10:38:46;27.50;;;12.90;;
55784;SDS011;41709;52.536;5.688;2023-04-16T10:41:14;23.75;;;12.85;;
55784;SDS011;41709;52.536;5.688;2023-04-16T10:43:41;28.65;;;12.90;;
55784;SDS011;41709;52.536;5.688;2023-04-16T10:49:19;32.60;;;13.35;;
55784;SDS011;41709;52.536;5.688;2023-04-16T10:51:55;27.85;;;12.27;;
55784;SDS011;41709;52.536;5.688;2023-04-16T10:54:30;30.90;;;12.45;;
55784;SDS011;41709;52.536;5.688;2023-04-16T10:56:59;26.83;;;12.15;;
55784;SDS011;41709;52.536;5.688;2023-04-16T10:59:31;28.48;;;12.93;;
55784;SDS011;41709;52.536;5.688;2023-04-16T11:01:59;25.50;;;12.68;;
55784;SDS011;41709;52.536;5.688;2023-04-16T11:04:33;24.85;;;12.20;;
55784;SDS011;41709;52.536;5.688;2023-04-16T11:09:41;29.27;;;12.40;;
55784;SDS011;41709;52.536;5.688;2023-04-16T11:12:36;25.35;;;11.63;;
55784;SDS011;41709;52.536;5.688;2023-04-16T11:17:35;27.10;;;11.98;;
55784;SDS011;41709;52.536;5.688;2023-04-16T11:20:09;33.72;;;12.90;;
55784;SDS011;41709;52.536;5.688;2023-04-16T11:22:40;36.00;;;13.57;;
55784;SDS011;41709;52.536;5.688;2023-04-16T11:25:07;35.72;;;12.10;;
55784;SDS011;41709;52.536;5.688;2023-04-16T11:27:33;32.38;;;13.18;;
55784;SDS011;41709;52.536;5.688;2023-04-16T11:30:05;30.33;;;13.07;;
55784;SDS011;41709;52.536;5.688;2023-04-16T11:32:34;32.83;;;13.13;;
55784;SDS011;41709;52.536;5.688;2023-04-16T11:35:01;29.92;;;13.90;;
55784;SDS011;41709;52.536;5.688;2023-04-16T11:37:32;30.90;;;13.32;;
55784;SDS011;41709;52.536;5.688;2023-04-16T11:40:02;31.08;;;11.75;;
55784;SDS011;41709;52.536;5.688;2023-04-16T11:44:57;25.58;;;10.93;;
55784;SDS011;41709;52.536;5.688;2023-04-16T11:47:26;34.03;;;12.75;;
55784;SDS011;41709;52.536;5.688;2023-04-16T11:49:53;31.75;;;11.68;;
55784;SDS011;41709;52.536;5.688;2023-04-16T11:52:33;31.92;;;12.45;;
55784;SDS011;41709;52.536;5.688;2023-04-16T11:55:01;27.08;;;11.00;;
55784;SDS011;41709;52.536;5.688;2023-04-16T11:57:27;37.78;;;11.82;;
55784;SDS011;41709;52.536;5.688;2023-04-16T11:59:54;27.92;;;11.35;;
55784;SDS011;41709;52.536;5.688;2023-04-16T12:02:37;27.20;;;12.43;;
55784;SDS011;41709;52.536;5.688;2023-04-16T12:05:05;24.10;;;11.50;;
55784;SDS011;41709;52.536;5.688;2023-04-16T12:07:49;25.10;;;12.07;;
55784;SDS011;41709;52.536;5.688;2023-04-16T12:10:14;29.27;;;12.80;;
55784;SDS011;41709;52.536;5.688;2023-04-16T12:12:40;27.52;;;11.50;;
55784;SDS011;41709;52.536;5.688;2023-04-16T12:15:06;25.90;;;12.00;;
55784;SDS011;41709;52.536;5.688;2023-04-16T12:17:33;30.63;;;12.02;;
55784;SDS011;41709;52.536;5.688;2023-04-16T12:20:00;26.65;;;12.80;;
55784;SDS011;41709;52.536;5.688;2023-04-16T12:22:30;23.20;;;10.68;;
55784;SDS011;41709;52.536;5.688;2023-04-16T12:24:59;25.55;;;11.10;;
55784;SDS011;41709;52.536;5.688;2023-04-16T12:27:39;25.05;;;12.05;;
55784;SDS011;41709;52.536;5.688;2023-04-16T12:30:06;22.88;;;12.25;;
55784;SDS011;41709;52.536;5.688;2023-04-16T12:32:32;28.80;;;12.23;;
55784;SDS011;41709;52.536;5.688;2023-04-16T12:34:58;24.65;;;12.13;;
55784;SDS011;41709;52.536;5.688;2023-04-16T12:37:23;31.98;;;12.02;;
55784;SDS011;41709;52.536;5.688;2023-04-16T12:39:49;27.45;;;12.70;;
55784;SDS011;41709;52.536;5.688;2023-04-16T12:42:14;32.08;;;13.18;;
55784;SDS011;41709;52.536;5.688;2023-04-16T12:44:40;26.75;;;12.27;;
55784;SDS011;41709;52.536;5.688;2023-04-16T12:47:06;34.50;;;14.10;;
55784;SDS011;41709;52.536;5.688;2023-04-16T12:49:31;28.30;;;11.98;;
55784;SDS011;41709;52.536;5.688;2023-04-16T12:51:57;25.30;;;11.43;;
55784;SDS011;41709;52.536;5.688;2023-04-16T12:54:22;29.15;;;12.10;;
55784;SDS011;41709;52.536;5.688;2023-04-16T12:56:52;36.10;;;13.52;;
55784;SDS011;41709;52.536;5.688;2023-04-16T12:59:18;27.20;;;12.20;;
55784;SDS011;41709;52.536;5.688;2023-04-16T13:01:43;32.85;;;11.20;;
55784;SDS011;41709;52.536;5.688;2023-04-16T13:04:09;26.17;;;12.02;;
55784;SDS011;41709;52.536;5.688;2023-04-16T13:06:35;30.55;;;12.13;;
55784;SDS011;41709;52.536;5.688;2023-04-16T13:09:01;31.25;;;11.27;;
55784;SDS011;41709;52.536;5.688;2023-04-16T13:11:28;28.65;;;11.27;;
55784;SDS011;41709;52.536;5.688;2023-04-16T13:13:54;31.58;;;11.50;;
55784;SDS011;41709;52.536;5.688;2023-04-16T13:16:19;23.08;;;11.30;;
55784;SDS011;41709;52.536;5.688;2023-04-16T13:18:45;28.85;;;11.35;;
55784;SDS011;41709;52.536;5.688;2023-04-16T13:21:11;27.88;;;11.20;;
55784;SDS011;41709;52.536;5.688;2023-04-16T13:23:36;31.35;;;11.70;;
55784;SDS011;41709;52.536;5.688;2023-04-16T13:26:02;22.50;;;12.05;;
55784;SDS011;41709;52.536;5.688;2023-04-16T13:28:27;24.05;;;11.75;;
55784;SDS011;41709;52.536;5.688;2023-04-16T13:30:53;34.85;;;13.27;;
55784;SDS011;41709;52.536;5.688;2023-04-16T13:33:19;24.88;;;11.23;;
55784;SDS011;41709;52.536;5.688;2023-04-16T13:35:45;29.63;;;11.60;;
55784;SDS011;41709;52.536;5.688;2023-04-16T13:38:12;27.52;;;12.68;;
55784;SDS011;41709;52.536;5.688;2023-04-16T13:40:38;25.13;;;12.82;;
55784;SDS011;41709;52.536;5.688;2023-04-16T13:43:03;24.83;;;12.45;;
55784;SDS011;41709;52.536;5.688;2023-04-16T13:45:29;26.83;;;13.77;;
55784;SDS011;41709;52.536;5.688;2023-04-16T13:47:54;26.75;;;13.98;;
55784;SDS011;41709;52.536;5.688;2023-04-16T13:50:20;26.45;;;13.07;;
55784;SDS011;41709;52.536;5.688;2023-04-16T13:52:45;27.23;;;14.68;;
55784;SDS011;41709;52.536;5.688;2023-04-16T13:55:11;25.48;;;12.63;;
55784;SDS011;41709;52.536;5.688;2023-04-16T13:57:38;30.42;;;12.90;;
55784;SDS011;41709;52.536;5.688;2023-04-16T14:00:05;28.13;;;14.60;;
55784;SDS011;41709;52.536;5.688;2023-04-16T14:02:31;33.25;;;12.82;;
55784;SDS011;41709;52.536;5.688;2023-04-16T14:04:57;26.40;;;12.57;;
55784;SDS011;41709;52.536;5.688;2023-04-16T14:07:23;27.80;;;14.45;;
55784;SDS011;41709;52.536;5.688;2023-04-16T14:09:51;28.73;;;14.48;;
55784;SDS011;41709;52.536;5.688;2023-04-16T14:12:17;24.48;;;13.07;;
55784;SDS011;41709;52.536;5.688;2023-04-16T14:14:43;26.17;;;13.98;;
55784;SDS011;41709;52.536;5.688;2023-04-16T14:17:08;27.67;;;14.30;;
55784;SDS011;41709;52.536;5.688;2023-04-16T14:19:34;24.88;;;12.50;;
55784;SDS011;41709;52.536;5.688;2023-04-16T14:22:00;26.23;;;13.38;;
55784;SDS011;41709;52.536;5.688;2023-04-16T14:24:25;27.80;;;13.55;;
55784;SDS011;41709;52.536;5.688;2023-04-16T14:26:51;23.90;;;13.50;;
55784;SDS011;41709;52.536;5.688;2023-04-16T14:29:16;27.05;;;13.05;;
55784;SDS011;41709;52.536;5.688;2023-04-16T14:31:42;27.00;;;13.02;;
55784;SDS011;41709;52.536;5.688;2023-04-16T14:34:07;26.52;;;13.73;;